Time;durP1;ratioP1;P1;durP2;ratioP2;P2;SDS_P1;SDS_P2;PMS_P1;PMS_P2;Temp;Humidity;BMP_temperature;BMP_pressure;BME280_temperature;BME280_humidity;BME280_pressure;Samples;Min_cycle;Max_cycle;Signal;HPM_P1;HPM_P2
2022/04/29 00:00:36;;;;;;;14.05;5.53;;;;;;;;;;5014099;28;22648;-64
2022/04/29 00:03:03;;;;;;;14.65;5.88;;;;;;;;;;5016100;28;20428;-64
2022/04/29 00:05:29;;;;;;;14.10;5.50;;;;;;;;;;5023856;28;20428;-64
2022/04/29 00:07:56;;;;;;;11.70;5.73;;;;;;;;;;5023046;28;20490;-64
2022/04/29 00:10:22;;;;;;;12.23;5.68;;;;;;;;;;5030940;28;20423;-64
2022/04/29 00:12:49;;;;;;;10.82;5.45;;;;;;;;;;5035494;28;20427;-64
2022/04/29 00:15:16;;;;;;;14.07;6.25;;;;;;;;;;5025957;28;20465;-64
2022/04/29 00:17:42;;;;;;;9.40;5.80;;;;;;;;;;5016955;28;20433;-65
2022/04/29 00:20:09;;;;;;;12.35;6.22;;;;;;;;;;5021696;28;20933;-64
2022/04/29 00:22:36;;;;;;;16.30;6.63;;;;;;;;;;5031264;28;20445;-64
2022/04/29 00:25:02;;;;;;;14.82;6.55;;;;;;;;;;5020547;28;20443;-63
2022/04/29 00:27:28;;;;;;;13.25;6.45;;;;;;;;;;5032416;28;20478;-63
2022/04/29 00:29:54;;;;;;;13.18;6.10;;;;;;;;;;5027070;28;20420;-63
2022/04/29 00:32:22;;;;;;;12.70;6.05;;;;;;;;;;5024430;28;20422;-64
2022/04/29 00:34:51;;;;;;;16.08;7.22;;;;;;;;;;5019254;28;20417;-64
2022/04/29 00:37:18;;;;;;;14.10;6.50;;;;;;;;;;5031205;28;20425;-64
2022/04/29 00:39:44;;;;;;;14.97;6.70;;;;;;;;;;5029377;28;21018;-63
2022/04/29 00:42:15;;;;;;;13.32;6.93;;;6.40;99.90;;;;;;5029032;28;20421;-63
2022/04/29 00:44:42;;;;;;;14.13;6.57;;;;;;;;;;5024830;28;20520;-63
2022/04/29 00:47:13;;;;;;;13.65;6.57;;;;;;;;;;5017758;28;20456;-63
2022/04/29 00:49:39;;;;;;;11.30;6.55;;;;;;;;;;5019987;28;20429;-64
2022/04/29 00:52:06;;;;;;;14.55;6.40;;;;;;;;;;5029042;28;20426;-63
2022/04/29 00:54:34;;;;;;;12.90;6.20;;;;;;;;;;5023680;28;20431;-63
2022/04/29 00:57:01;;;;;;;13.90;6.83;;;;;;;;;;5019501;28;20486;-64
2022/04/29 00:59:52;;;;;;;12.27;6.57;;;6.70;99.90;;;;;;5025133;28;20422;-64
2022/04/29 01:02:18;;;;;;;13.60;6.25;;;;;;;;;;5029605;28;21073;-64
2022/04/29 01:04:59;;;;;;;13.63;6.82;;;;;;;;;;5026951;28;20413;-64
2022/04/29 01:07:26;;;;;;;12.38;6.63;;;;;;;;;;5028785;28;20431;-64
2022/04/29 01:09:52;;;;;;;12.80;6.60;;;;;;;;;;5023611;28;20431;-64
2022/04/29 01:12:18;;;;;;;12.40;6.50;;;;;;;;;;5017659;28;20468;-63
2022/04/29 01:14:45;;;;;;;17.55;7.40;;;;;;;;;;5022718;28;20542;-64
2022/04/29 01:17:11;;;;;;;14.32;6.93;;;;;;;;;;5031116;28;20427;-64
2022/04/29 01:19:40;;;;;;;13.02;6.65;;;;;;;;;;5016568;28;20429;-63
2022/04/29 01:22:07;;;;;;;12.88;6.90;;;;;;;;;;5031449;28;20482;-63
2022/04/29 01:24:33;;;;;;;12.35;7.38;;;;;;;;;;5024359;28;20426;-63
2022/04/29 01:26:59;;;;;;;13.18;6.93;;;;;;;;;;5025028;28;20496;-64
2022/04/29 01:29:27;;;;;;;13.90;6.55;;;;;;;;;;5030401;28;20454;-63
2022/04/29 01:31:54;;;;;;;15.23;7.10;;;;;;;;;;5022258;28;20471;-63
2022/04/29 01:34:20;;;;;;;13.27;6.85;;;;;;;;;;5032324;28;20434;-64
2022/04/29 01:36:46;;;;;;;11.93;6.72;;;;;;;;;;5021435;28;20429;-64
2022/04/29 01:39:12;;;;;;;14.77;7.50;;;6.50;99.90;;;;;;5035563;28;20427;-63
2022/04/29 01:41:38;;;;;;;12.98;6.65;;;;;;;;;;5018993;28;20459;-63
2022/04/29 01:44:04;;;;;;;14.25;7.45;;;;;;;;;;5034294;28;20439;-63
2022/04/29 01:46:30;;;;;;;15.17;7.43;;;;;;;;;;5020181;28;20435;-63
2022/04/29 01:48:56;;;;;;;14.18;7.15;;;;;;;;;;5033417;28;20438;-64
2022/04/29 01:51:22;;;;;;;13.85;7.22;;;;;;;;;;5023894;28;20426;-63
2022/04/29 01:53:53;;;;;;;14.30;7.88;;;;;;;;;;5030052;28;20433;-64
2022/04/29 01:56:19;;;;;;;14.70;7.57;;;;;;;;;;5013650;28;20464;-63
2022/04/29 01:58:46;;;;;;;14.40;7.38;;;;;;;;;;5026078;28;20818;-63
2022/04/29 02:01:12;;;;;;;15.43;8.48;;;;;;;;;;5033580;28;20431;-64
2022/04/29 02:03:38;;;;;;;16.20;7.60;;;;;;;;;;5023752;28;20411;-62
2022/04/29 02:06:04;;;;;;;13.35;7.43;;;6.10;99.90;;;;;;5026899;28;20438;-63
2022/04/29 02:08:29;;;;;;;13.50;7.78;;;6.10;99.90;;;;;;5026892;28;20426;-63
2022/04/29 02:10:55;;;;;;;14.35;7.50;;;;;;;;;;5016469;28;21094;-64
2022/04/29 02:13:21;;;;;;;13.32;7.63;;;;;;;;;;5025639;28;20407;-64
2022/04/29 02:15:48;;;;;;;14.70;7.70;;;;;;;;;;5025566;28;20427;-64
2022/04/29 02:18:15;;;;;;;18.95;9.00;;;;;;;;;;5031234;28;20453;-64
2022/04/29 02:20:41;;;;;;;16.38;9.48;;;;;;;;;;5025354;28;20543;-63
2022/04/29 02:23:07;;;;;;;17.70;9.40;;;;;;;;;;5026751;28;20548;-64
2022/04/29 02:25:33;;;;;;;16.00;8.50;;;6.40;99.90;;;;;;5017230;28;20413;-64
2022/04/29 02:27:59;;;;;;;14.30;7.90;;;;;;;;;;5030272;28;20454;-64
2022/04/29 02:30:25;;;;;;;15.45;7.30;;;;;;;;;;5036749;28;20426;-64
2022/04/29 02:32:51;;;;;;;14.27;7.33;;;;;;;;;;5034006;28;20415;-64
2022/04/29 02:35:17;;;;;;;17.42;9.23;;;;;;;;;;5022976;28;20428;-65
2022/04/29 02:37:43;;;;;;;15.55;9.07;;;;;;;;;;5032935;28;20427;-63
2022/04/29 02:40:09;;;;;;;15.67;9.00;;;;;;;;;;5031151;28;20473;-64
2022/04/29 02:42:36;;;;;;;15.55;7.88;;;;;;;;;;5025076;28;20419;-63
2022/04/29 02:45:02;;;;;;;16.45;7.55;;;;;;;;;;5021703;28;20445;-65
2022/04/29 02:47:28;;;;;;;19.27;7.78;;;;;;;;;;5038756;28;20430;-64
2022/04/29 02:49:53;;;;;;;15.67;8.17;;;6.10;99.90;;;;;;5026340;28;20427;-65
2022/04/29 02:52:19;;;;;;;13.37;7.60;;;;;;;;;;5024975;28;20422;-64
2022/04/29 02:54:46;;;;;;;15.90;7.82;;;;;;;;;;5017868;28;20788;-63
2022/04/29 02:57:12;;;;;;;16.63;7.97;;;;;;;;;;5030514;28;20430;-64
2022/04/29 02:59:38;;;;;;;15.27;7.45;;;;;;;;;;5026693;28;20453;-63
2022/04/29 03:02:04;;;;;;;21.63;8.55;;;;;;;;;;5036685;28;21037;-64
2022/04/29 03:04:30;;;;;;;24.30;8.93;;;;;;;;;;5033306;28;20433;-64
2022/04/29 03:06:56;;;;;;;17.67;8.40;;;;;;;;;;5015351;28;20855;-64
2022/04/29 03:09:23;;;;;;;20.23;8.65;;;;;;;;;;5034425;28;20426;-64
2022/04/29 03:11:49;;;;;;;19.67;8.38;;;;;;;;;;5032957;28;20775;-64
2022/04/29 03:14:15;;;;;;;15.20;8.38;;;;;;;;;;5024488;28;20427;-63
2022/04/29 03:16:41;;;;;;;15.23;8.43;;;5.90;99.90;;;;;;5033852;28;20429;-64
2022/04/29 03:19:08;;;;;;;16.48;8.20;;;;;;;;;;5029453;28;20441;-65
2022/04/29 03:21:35;;;;;;;17.00;7.97;;;;;;;;;;5026097;28;20826;-64
2022/04/29 03:24:01;;;;;;;16.23;8.18;;;;;;;;;;5022195;28;20528;-64
2022/04/29 03:26:28;;;;;;;15.50;7.80;;;;;;;;;;5022204;28;20564;-65
2022/04/29 03:28:54;;;;;;;15.77;9.00;;;;;;;;;;5033836;28;20423;-64
2022/04/29 03:31:20;;;;;;;18.13;8.18;;;;;;;;;;5029328;28;20527;-64
2022/04/29 03:33:46;;;;;;;15.43;8.32;;;;;;;;;;5025007;28;20449;-63
2022/04/29 03:36:14;;;;;;;19.95;8.60;;;;;;;;;;5016934;28;20864;-64
2022/04/29 03:38:40;;;;;;;18.03;8.43;;;;;;;;;;5033245;28;20455;-64
2022/04/29 03:41:07;;;;;;;15.07;8.40;;;;;;;;;;5019253;28;20416;-64
2022/04/29 03:43:33;;;;;;;17.50;8.43;;;;;;;;;;5038715;28;20449;-64
2022/04/29 03:46:00;;;;;;;16.60;8.07;;;;;;;;;;5024531;28;20445;-64
2022/04/29 03:48:26;;;;;;;16.10;8.47;;;;;;;;;;5023198;28;20567;-63
2022/04/29 03:50:52;;;;;;;14.13;8.45;;;;;;;;;;5032700;28;20449;-63
2022/04/29 03:53:22;;;;;;;14.07;8.20;;;;;;;;;;5036113;28;20439;-64
2022/04/29 03:55:48;;;;;;;15.45;7.90;;;;;;;;;;5024778;28;20452;-63
2022/04/29 03:58:14;;;;;;;12.75;7.75;;;;;;;;;;5026941;28;20832;-64
2022/04/29 04:00:40;;;;;;;15.00;8.52;;;;;;;;;;5029420;28;20429;-63
2022/04/29 04:03:06;;;;;;;15.65;8.90;;;;;;;;;;5029286;28;20419;-64
2022/04/29 04:05:33;;;;;;;16.23;8.80;;;5.80;99.90;;;;;;5020550;28;20460;-64
2022/04/29 04:07:59;;;;;;;15.75;8.70;;;5.60;99.90;;;;;;5037311;28;20427;-64
2022/04/29 04:10:26;;;;;;;17.50;9.20;;;6.40;99.90;;;;;;5030714;28;20467;-64
2022/04/29 04:12:52;;;;;;;16.27;9.75;;;;;;;;;;5034647;28;20449;-63
2022/04/29 04:15:20;;;;;;;13.43;9.27;;;;;;;;;;5033332;28;20419;-64
2022/04/29 04:17:47;;;;;;;15.73;9.27;;;;;;;;;;5019590;28;20436;-65
2022/04/29 04:20:14;;;;;;;16.45;9.10;;;;;;;;;;5021253;28;21081;-65
2022/04/29 04:22:40;;;;;;;17.15;9.90;;;;;;;;;;5027450;28;20427;-64
2022/04/29 04:25:08;;;;;;;18.70;9.68;;;;;;;;;;5029071;28;20426;-62
2022/04/29 04:27:34;;;;;;;16.23;9.65;;;;;;;;;;5022849;28;20446;-63
2022/04/29 04:30:01;;;;;;;23.13;9.97;;;;;;;;;;5036510;28;21339;-63
2022/04/29 04:32:33;;;;;;;16.67;9.73;;;;;;;;;;5019799;28;20499;-64
2022/04/29 04:35:00;;;;;;;16.52;10.05;;;;;;;;;;5032622;28;21035;-64
2022/04/29 04:37:27;;;;;;;16.80;9.43;;;;;;;;;;5026778;28;20431;-64
2022/04/29 04:39:53;;;;;;;20.33;9.67;;;;;;;;;;5029628;28;21028;-63
2022/04/29 04:42:19;;;;;;;17.23;9.15;;;;;;;;;;5018796;28;20499;-63
2022/04/29 04:44:47;;;;;;;16.58;10.57;;;;;;;;;;5027999;28;20425;-63
2022/04/29 04:47:13;;;;;;;19.33;10.35;;;;;;;;;;5024079;28;20504;-63
2022/04/29 04:49:39;;;;;;;17.23;9.70;;;;;;;;;;5019969;28;20432;-63
2022/04/29 04:52:05;;;;;;;17.50;9.70;;;;;;;;;;5033112;28;20492;-63
2022/04/29 04:54:31;;;;;;;17.52;10.20;;;;;;;;;;5023699;28;20488;-64
2022/04/29 04:56:58;;;;;;;16.60;9.45;;;;;;;;;;5024374;28;20410;-64
2022/04/29 04:59:24;;;;;;;13.85;9.55;;;;;;;;;;5029733;28;20519;-64
2022/04/29 05:01:50;;;;;;;16.80;9.30;;;;;;;;;;5034593;28;20427;-64
2022/04/29 05:04:15;;;;;;;15.45;9.73;;;6.80;99.90;;;;;;5019745;28;20721;-64
2022/04/29 05:06:42;;;;;;;14.88;8.88;;;;;;;;;;5027791;28;20506;-63
2022/04/29 05:09:08;;;;;;;16.90;9.23;;;;;;;;;;5028344;28;20423;-64
2022/04/29 05:11:35;;;;;;;15.47;9.17;;;;;;;;;;5025652;28;20934;-64
2022/04/29 05:14:01;;;;;;;17.97;9.77;;;;;;;;;;5028519;28;20992;-65
2022/04/29 05:16:27;;;;;;;15.98;8.77;;;;;;;;;;5035702;28;20411;-65
2022/04/29 05:18:53;;;;;;;15.35;8.93;;;7.10;99.90;;;;;;5027551;28;20440;-64
2022/04/29 05:21:19;;;;;;;20.43;9.23;;;6.90;99.90;;;;;;5018086;28;20422;-64
2022/04/29 05:23:45;;;;;;;16.80;8.67;;;;;;;;;;5025624;28;20480;-64
2022/04/29 05:26:11;;;;;;;16.10;9.05;;;;;;;;;;5006525;28;20436;-64
2022/04/29 05:28:37;;;;;;;14.80;8.90;;;;;;;;;;5020836;28;20513;-63
2022/04/29 05:31:04;;;;;;;15.52;9.40;;;;;;;;;;5027436;28;20434;-64
2022/04/29 05:33:31;;;;;;;16.65;9.40;;;;;;;;;;5014496;28;20423;-63
2022/04/29 05:35:59;;;;;;;15.07;9.77;;;;;;;;;;5021909;28;20432;-64
2022/04/29 05:42:14;;;;;;;18.42;10.18;;;;;;;;;;5029977;28;20452;-63
2022/04/29 05:43:56;;;;;;;19.15;10.60;;;;;;;;;;5029087;28;20880;-63
2022/04/29 05:46:22;;;;;;;18.98;10.95;;;;;;;;;;5030109;28;20438;-62
2022/04/29 05:48:48;;;;;;;18.55;10.10;;;;;;;;;;5024963;28;20430;-63
2022/04/29 05:51:14;;;;;;;16.60;9.68;;;;;;;;;;5030396;28;20426;-62
2022/04/29 05:53:40;;;;;;;14.57;9.65;;;;;;;;;;5018447;28;20424;-62
2022/04/29 05:56:06;;;;;;;14.48;9.57;;;;;;;;;;5025861;28;20447;-62
2022/04/29 05:58:32;;;;;;;15.88;9.35;;;;;;;;;;5022794;28;20791;-62
2022/04/29 06:00:58;;;;;;;16.33;10.63;;;;;;;;;;5033537;28;20468;-63
2022/04/29 06:03:25;;;;;;;17.85;10.40;;;;;;;;;;5019878;28;20482;-62
2022/04/29 06:05:51;;;;;;;17.08;9.15;;;7.80;99.90;;;;;;5029633;28;20458;-62
2022/04/29 06:08:17;;;;;;;14.70;9.35;;;7.80;99.90;;;;;;5028882;28;20423;-63
2022/04/29 06:10:43;;;;;;;15.98;9.30;;;;;;;;;;5031789;28;20474;-63
2022/04/29 06:13:09;;;;;;;12.05;8.48;;;;;;;;;;5022218;28;20472;-63
2022/04/29 06:15:35;;;;;;;15.60;8.48;;;;;;;;;;5029588;28;20948;-63
2022/04/29 06:18:02;;;;;;;14.32;8.50;;;;;;;;;;5033735;28;20452;-62
2022/04/29 06:20:29;;;;;;;15.50;8.38;;;;;;;;;;5031611;28;20431;-63
2022/04/29 06:22:56;;;;;;;15.68;8.30;;;;;;;;;;5022399;28;20424;-64
2022/04/29 06:25:22;;;;;;;14.75;8.20;;;8.10;99.90;;;;;;5021995;28;20430;-62
2022/04/29 06:27:48;;;;;;;15.15;8.55;;;;;;;;;;5021308;28;20428;-63
2022/04/29 06:30:14;;;;;;;16.40;8.68;;;;;;;;;;5029728;28;20437;-63
2022/04/29 06:32:40;;;;;;;14.45;8.85;;;;;;;;;;5022323;28;20428;-63
2022/04/29 06:35:07;;;;;;;15.07;8.80;;;;;;;;;;5021302;28;20436;-63
2022/04/29 06:37:33;;;;;;;12.90;7.97;;;;;;;;;;5023662;28;20928;-64
2022/04/29 06:39:59;;;;;;;12.88;7.60;;;;;;;;;;5031200;28;20430;-63
2022/04/29 06:42:25;;;;;;;11.90;7.93;;;8.60;99.90;;;;;;5031340;28;20459;-63
2022/04/29 06:44:51;;;;;;;12.23;7.68;;;;;;;;;;5026023;28;20472;-63
2022/04/29 06:47:18;;;;;;;14.57;9.70;;;;;;;;;;5015517;28;20433;-63
2022/04/29 06:49:44;;;;;;;14.05;7.57;;;;;;;;;;5029691;28;20431;-63
2022/04/29 06:52:10;;;;;;;15.57;7.97;;;;;;;;;;5026378;28;20490;-63
2022/04/29 06:54:36;;;;;;;11.30;7.07;;;;;;;;;;5024352;28;20433;-63
2022/04/29 06:57:02;;;;;;;19.52;12.82;;;;;;;;;;5027066;28;20421;-63
2022/04/29 06:59:29;;;;;;;13.73;7.18;;;;;;;;;;5010455;28;20419;-64
2022/04/29 07:01:55;;;;;;;10.97;7.43;;;;;;;;;;5021306;28;20507;-63
2022/04/29 07:04:28;;;;;;;13.55;7.15;;;;;;;;;;5025334;28;20425;-63
2022/04/29 07:06:54;;;;;;;11.77;6.88;;;;;;;;;;5026244;28;20435;-63
2022/04/29 07:09:20;;;;;;;10.35;6.40;;;9.60;99.90;;;;;;5024256;28;20421;-63
2022/04/29 07:11:46;;;;;;;11.75;6.40;;;9.60;99.90;;;;;;5034400;28;20453;-63
2022/04/29 07:14:12;;;;;;;12.05;6.80;;;;;;;;;;5029026;28;20818;-63
2022/04/29 07:16:38;;;;;;;9.97;5.57;;;;;;;;;;5020971;28;20518;-63
2022/04/29 07:19:04;;;;;;;9.82;5.45;;;;;;;;;;5025372;28;20426;-63
2022/04/29 07:21:30;;;;;;;11.13;5.53;;;;;;;;;;5022435;28;20444;-64
2022/04/29 07:23:57;;;;;;;11.30;5.20;;;;;;;;;;5030365;28;20482;-63
2022/04/29 07:26:23;;;;;;;11.13;5.30;;;;;;;;;;5008675;28;20438;-63
2022/04/29 07:28:50;;;;;;;9.48;5.13;;;9.80;99.90;;;;;;5019519;28;20437;-63
2022/04/29 07:31:15;;;;;;;9.60;5.32;;;10.00;99.90;;;;;;5029969;28;21085;-63
2022/04/29 07:33:41;;;;;;;9.70;5.20;;;;;;;;;;5027556;28;20534;-64
2022/04/29 07:41:45;;;;;;;9.18;4.30;;;10.20;99.90;;;;;;5014313;28;20835;-64
2022/04/29 07:44:12;;;;;;;7.30;3.60;;;;;;;;;;5023744;28;20425;-64
2022/04/29 07:46:42;;;;;;;7.88;3.65;;;10.20;99.90;;;;;;5010494;28;20444;-63
2022/04/29 07:49:08;;;;;;;9.45;4.10;;;10.30;99.90;;;;;;5021488;28;20425;-63
2022/04/29 07:51:34;;;;;;;7.25;3.72;;;;;;;;;;5024322;28;20466;-63
2022/04/29 07:54:00;;;;;;;6.88;4.07;;;;;;;;;;5031908;28;20977;-63
2022/04/29 07:56:26;;;;;;;8.60;4.10;;;;;;;;;;5035270;28;20465;-63
2022/04/29 07:58:52;;;;;;;6.75;4.00;;;10.10;99.90;;;;;;5023759;28;20441;-63
2022/04/29 08:01:18;;;;;;;7.68;4.13;;;;;;;;;;5029850;28;20403;-63
2022/04/29 08:03:44;;;;;;;8.23;4.13;;;;;;;;;;5021301;28;20461;-62
2022/04/29 08:06:09;;;;;;;8.85;4.30;;;10.00;99.90;;;;;;5030099;28;20446;-63
2022/04/29 08:08:37;;;;;;;12.77;4.30;;;;;;;;;;5027702;28;20428;-62
2022/04/29 08:11:04;;;;;;;9.25;4.22;;;;;;;;;;5032376;28;20795;-63
2022/04/29 08:13:30;;;;;;;7.45;4.00;;;;;;;;;;5031092;28;20452;-63
2022/04/29 08:15:58;;;;;;;7.82;4.10;;;;;;;;;;5037374;28;20460;-63
2022/04/29 08:18:25;;;;;;;9.10;4.25;;;;;;;;;;5020940;28;20423;-63
2022/04/29 08:20:52;;;;;;;6.40;3.90;;;;;;;;;;5033569;28;20426;-64
2022/04/29 08:23:18;;;;;;;6.78;3.67;;;;;;;;;;5026479;28;20763;-63
2022/04/29 08:25:44;;;;;;;6.45;3.63;;;;;;;;;;5027573;28;20451;-63
2022/04/29 08:28:10;;;;;;;6.13;3.67;;;;;;;;;;5019853;28;20418;-64
2022/04/29 08:30:37;;;;;;;6.22;3.67;;;;;;;;;;5030781;28;20497;-63
2022/04/29 08:33:03;;;;;;;5.95;3.03;;;;;;;;;;5015951;28;20429;-63
2022/04/29 08:35:30;;;;;;;8.27;2.83;;;;;;;;;;5014784;28;20555;-63
2022/04/29 08:37:59;;;;;;;7.45;2.80;;;;;;;;;;5028246;28;20927;-63
2022/04/29 08:40:25;;;;;;;5.20;2.88;;;;;;;;;;5017946;28;20524;-64
2022/04/29 08:42:53;;;;;;;7.30;3.10;;;10.90;99.90;;;;;;5032124;28;20437;-64
2022/04/29 08:45:19;;;;;;;4.35;2.28;;;;;;;;;;5021204;28;20442;-61
2022/04/29 08:47:46;;;;;;;6.80;2.67;;;;;;;;;;5021630;28;20423;-63
2022/04/29 08:50:18;;;;;;;7.77;2.73;;;10.90;99.90;;;;;;5020357;28;20428;-63
2022/04/29 08:52:45;;;;;;;6.63;2.70;;;;;;;;;;5032820;28;20799;-64
2022/04/29 09:00:44;;;;;;;7.20;2.90;;;;;;;;;;5030769;28;20472;-63
2022/04/29 09:03:13;;;;;;;6.90;2.60;;;;;;;;;;5029694;28;20424;-64
2022/04/29 09:05:40;;;;;;;5.80;2.92;;;;;;;;;;5032370;28;20553;-63
2022/04/29 09:08:06;;;;;;;5.00;3.05;;;;;;;;;;5030447;28;20427;-63
2022/04/29 09:10:36;;;;;;;7.07;3.42;;;;;;;;;;5030374;28;20508;-64
2022/04/29 09:13:15;;;;;;;5.75;3.40;;;;;;;;;;5028927;28;20419;-65
2022/04/29 09:16:02;;;;;;;12.13;4.50;;;;;;;;;;5011922;28;20442;-63
2022/04/29 09:18:28;;;;;;;8.30;3.78;;;11.00;99.90;;;;;;5025774;28;20433;-63
2022/04/29 09:20:53;;;;;;;6.67;3.50;;;11.00;99.90;;;;;;5027728;28;20492;-63
2022/04/29 09:23:38;;;;;;;7.93;3.33;;;;;;;;;;5013220;28;20446;-64
2022/04/29 09:26:05;;;;;;;12.00;3.85;;;;;;;;;;5017214;28;20437;-63
2022/04/29 09:28:35;;;;;;;6.50;3.65;;;;;;;;;;5021939;28;20616;-63
2022/04/29 09:31:03;;;;;;;17.90;4.80;;;;;;;;;;5031511;28;20944;-64
2022/04/29 09:33:30;;;;;;;9.05;3.65;;;;;;;;;;5022229;28;20454;-64
2022/04/29 09:35:57;;;;;;;6.28;3.55;;;;;;;;;;5025748;28;20780;-66
2022/04/29 09:41:08;;;;;;;5.18;2.97;;;;;;;;;;5021338;28;20425;-62
2022/04/29 09:43:38;;;;;;;6.53;3.63;;;;;;;;;;5023290;28;20428;-62
2022/04/29 09:46:23;;;;;;;7.07;3.20;;;11.10;99.90;;;;;;5023997;28;20507;-62
2022/04/29 09:48:53;;;;;;;9.23;3.42;;;;;;;;;;5028275;28;20484;-62
2022/04/29 09:51:49;;;;;;;7.75;3.97;;;11.20;99.90;;;;;;5036514;28;20776;-62
2022/04/29 09:54:25;;;;;;;8.97;3.60;;;;;;;;;;5028073;28;20588;-62
2022/04/29 09:57:05;;;;;;;7.35;3.35;;;;;;;;;;5018598;28;20439;-63
2022/04/29 09:59:40;;;;;;;7.90;3.70;;;;;;;;;;5024950;28;20440;-62
2022/04/29 10:02:08;;;;;;;7.28;3.70;;;11.20;99.90;;;;;;5023720;28;20429;-61
2022/04/29 10:04:35;;;;;;;9.25;3.90;;;;;;;;;;5033820;28;20600;-62
2022/04/29 10:07:03;;;;;;;5.77;3.70;;;;;;;;;;5028607;28;20430;-62
2022/04/29 10:09:31;;;;;;;8.18;4.00;;;;;;;;;;5031013;28;20551;-62
2022/04/29 10:11:59;;;;;;;7.50;3.72;;;;;;;;;;5010369;28;20424;-63
2022/04/29 10:14:26;;;;;;;8.70;3.50;;;;;;;;;;5027972;28;20994;-63
2022/04/29 10:22:29;;;;;;;9.35;4.15;;;;;;;;;;5021254;28;20420;-63
2022/04/29 10:24:55;;;;;;;7.47;4.35;;;;;;;;;;5012337;28;20762;-61
2022/04/29 10:27:22;;;;;;;7.55;4.60;;;;;;;;;;5010346;28;20435;-62
2022/04/29 10:29:48;;;;;;;8.70;4.88;;;;;;;;;;5011960;28;20564;-62
2022/04/29 10:32:14;;;;;;;8.05;5.15;;;;;;;;;;5025304;28;20435;-61
2022/04/29 10:34:40;;;;;;;8.27;4.88;;;;;;;;;;5019370;28;20444;-62
2022/04/29 10:37:13;;;;;;;8.55;5.25;;;;;;;;;;5033702;28;20419;-63
2022/04/29 10:39:59;;;;;;;8.95;5.38;;;;;;;;;;5028582;28;20423;-62
2022/04/29 10:42:25;;;;;;;7.63;5.07;;;;;;;;;;5021116;28;20427;-62
2022/04/29 10:45:01;;;;;;;10.43;6.13;;;;;;;;;;5025168;28;20419;-62
2022/04/29 10:47:38;;;;;;;13.27;5.70;;;;;;;;;;5028456;28;20513;-62
2022/04/29 10:50:23;;;;;;;11.70;5.20;;;;;;;;;;5017804;28;20520;-62
2022/04/29 10:52:59;;;;;;;11.20;5.60;;;;;;;;;;5032836;28;20419;-62
2022/04/29 10:55:26;;;;;;;9.82;5.25;;;;;;;;;;5018061;28;20445;-61
2022/04/29 10:57:52;;;;;;;8.63;4.53;;;;;;;;;;5024841;28;20483;-62
2022/04/29 11:00:22;;;;;;;6.50;4.53;;;;;;;;;;5020551;28;21048;-62
2022/04/29 11:02:48;;;;;;;7.78;4.50;;;;;;;;;;5029155;28;20426;-62
2022/04/29 11:05:37;;;;;;;7.60;4.40;;;11.40;99.90;;;;;;5020993;28;20455;-62
2022/04/29 11:08:13;;;;;;;7.65;4.60;;;;;;;;;;5035408;28;20431;-62
2022/04/29 11:10:59;;;;;;;7.75;4.88;;;;;;;;;;5014111;28;20439;-63
2022/04/29 11:13:27;;;;;;;8.70;4.80;;;;;;;;;;5019448;28;20420;-63
2022/04/29 11:15:53;;;;;;;8.57;4.63;;;;;;;;;;5015673;28;20436;-62
2022/04/29 11:18:22;;;;;;;8.20;4.57;;;;;;;;;;5021374;28;20421;-63
2022/04/29 11:20:52;;;;;;;7.40;4.80;;;11.30;99.90;;;;;;5033152;28;20447;-62
2022/04/29 11:26:10;;;;;;;8.63;4.63;;;;;;;;;;5022803;28;20464;-62
2022/04/29 11:28:36;;;;;;;11.10;5.45;;;11.40;99.90;;;;;;5021987;28;20460;-63
2022/04/29 11:31:06;;;;;;;8.50;4.43;;;;;;;;;;5029031;28;20440;-63
2022/04/29 11:33:33;;;;;;;10.15;4.93;;;;;;;;;;5022917;28;20471;-62
2022/04/29 11:36:12;;;;;;;9.35;4.97;;;;;;;;;;5031397;28;20520;-64
2022/04/29 11:38:43;;;;;;;10.18;5.40;;;;;;;;;;5021770;28;20429;-63
2022/04/29 11:41:20;;;;;;;9.27;5.60;;;;;;;;;;5028720;28;20481;-63
2022/04/29 11:43:47;;;;;;;9.43;5.68;;;;;;;;;;5027774;28;20449;-63
2022/04/29 11:46:13;;;;;;;16.60;4.93;;;11.50;99.90;;;;;;5025658;28;20441;-62
2022/04/29 11:48:49;;;;;;;11.80;5.43;;;;;;;;;;5025773;28;20443;-62
2022/04/29 11:51:15;;;;;;;8.65;5.43;;;;;;;;;;5034559;28;20423;-62
2022/04/29 11:54:01;;;;;;;9.55;5.53;;;;;;;;;;5020449;28;20428;-63
2022/04/29 11:56:35;;;;;;;7.07;4.30;;;;;;;;;;5019794;28;20428;-63
2022/04/29 11:59:03;;;;;;;6.33;4.37;;;;;;;;;;5034016;28;20525;-62
2022/04/29 12:01:30;;;;;;;7.07;4.47;;;;;;;;;;5029842;28;20421;-63
2022/04/29 12:03:56;;;;;;;10.52;4.55;;;;;;;;;;5015654;28;20504;-62
2022/04/29 12:06:22;;;;;;;7.10;4.27;;;;;;;;;;5028314;28;20428;-63
2022/04/29 12:08:50;;;;;;;8.27;5.00;;;;;;;;;;5022141;28;21817;-63
2022/04/29 12:11:43;;;;;;;9.30;5.30;;;;;;;;;;5030540;28;20427;-62
2022/04/29 12:14:15;;;;;;;7.80;3.80;;;;;;;;;;5016991;28;20532;-62
2022/04/29 12:16:48;;;;;;;7.18;4.38;;;;;;;;;;5026052;28;20436;-62
2022/04/29 12:19:15;;;;;;;7.18;4.45;;;;;;;;;;5028041;28;20474;-62
2022/04/29 12:21:52;;;;;;;8.55;5.03;;;;;;;;;;5027773;28;20564;-63
2022/04/29 12:24:18;;;;;;;9.33;5.30;;;;;;;;;;5020446;28;20429;-63
2022/04/29 12:27:04;;;;;;;8.55;4.45;;;;;;;;;;5021336;28;20444;-63
2022/04/29 12:29:33;;;;;;;7.15;4.10;;;11.80;99.90;;;;;;5020798;28;20944;-63
2022/04/29 12:35:09;;;;;;;6.83;4.17;;;;;;;;;;5022828;28;20427;-63
2022/04/29 12:37:35;;;;;;;7.90;4.50;;;12.30;99.90;;;;;;5018236;28;20582;-63
2022/04/29 12:40:07;;;;;;;6.53;3.90;;;;;;;;;;5017587;28;20615;-62
2022/04/29 12:42:33;;;;;;;8.47;4.07;;;;;;;;;;5006134;28;20440;-62
2022/04/29 12:45:10;;;;;;;6.68;4.32;;;;;;;;;;5016923;28;20435;-62
2022/04/29 12:47:49;;;;;;;8.25;4.28;;;;;;;;;;5009410;28;20435;-62
2022/04/29 12:50:19;;;;;;;6.90;3.65;;;;;;;;;;5012909;28;20438;-61
2022/04/29 12:52:55;;;;;;;9.65;4.07;;;;;;;;;;5008516;28;20430;-62
2022/04/29 12:55:22;;;;;;;7.65;4.00;;;;;;;;;;5016736;28;20432;-62
2022/04/29 12:57:48;;;;;;;6.10;3.65;;;;;;;;;;5006297;28;20452;-63
2022/04/29 13:00:27;;;;;;;7.20;3.50;;;;;;;;;;5020280;28;20425;-63
2022/04/29 13:03:00;;;;;;;6.80;3.60;;;;;;;;;;5009744;28;20463;-62
2022/04/29 13:05:27;;;;;;;8.05;3.60;;;;;;;;;;5018575;28;20455;-63
2022/04/29 13:07:53;;;;;;;7.03;3.55;;;;;;;;;;5023597;28;20443;-63
2022/04/29 13:10:19;;;;;;;6.68;3.40;;;;;;;;;;5016125;28;20452;-62
2022/04/29 13:12:46;;;;;;;7.13;3.73;;;;;;;;;;5015486;28;20455;-62
2022/04/29 13:15:12;;;;;;;5.93;3.38;;;;;;;;;;5013087;28;20466;-62
2022/04/29 13:17:38;;;;;;;6.65;3.42;;;12.50;99.90;;;;;;5017254;28;20534;-62
2022/04/29 13:20:05;;;;;;;5.87;3.33;;;;;;;;;;5008646;28;20440;-62
2022/04/29 13:22:31;;;;;;;7.40;3.70;;;;;;;;;;5018714;28;20432;-61
2022/04/29 13:25:00;;;;;;;6.40;3.72;;;11.90;99.90;;;;;;5015346;28;20450;-62
2022/04/29 13:27:26;;;;;;;6.85;3.70;;;;;;;;;;5015120;28;20436;-63
2022/04/29 13:29:52;;;;;;;6.85;3.78;;;;;;;;;;5011814;28;20429;-62
2022/04/29 13:32:19;;;;;;;5.50;3.60;;;;;;;;;;5014574;28;20432;-63
2022/04/29 13:34:45;;;;;;;7.25;3.53;;;;;;;;;;5033463;28;20486;-63
2022/04/29 13:37:11;;;;;;;6.50;3.60;;;12.10;99.90;;;;;;5004062;28;20805;-63
2022/04/29 13:39:37;;;;;;;6.87;3.70;;;;;;;;;;5032993;28;20494;-62
2022/04/29 13:42:04;;;;;;;5.30;3.40;;;;;;;;;;5022618;28;20501;-61
2022/04/29 13:44:30;;;;;;;6.15;3.22;;;;;;;;;;5017241;28;20462;-61
2022/04/29 13:46:56;;;;;;;7.30;3.80;;;;;;;;;;5015818;28;20544;-62
2022/04/29 13:49:22;;;;;;;6.18;3.28;;;;;;;;;;5022906;28;20436;-63
2022/04/29 13:51:48;;;;;;;6.70;3.20;;;;;;;;;;5032803;28;20489;-62
2022/04/29 13:54:15;;;;;;;7.00;3.10;;;;;;;;;;5028842;28;20558;-62
2022/04/29 13:56:41;;;;;;;5.50;3.38;;;;;;;;;;5023320;28;20429;-62
2022/04/29 13:59:07;;;;;;;6.07;3.22;;;;;;;;;;5033122;28;20913;-62
2022/04/29 14:01:33;;;;;;;8.90;3.30;;;;;;;;;;5016187;28;20456;-63
2022/04/29 14:03:59;;;;;;;8.02;3.50;;;;;;;;;;5033421;28;20453;-62
2022/04/29 14:06:25;;;;;;;5.80;3.20;;;;;;;;;;5022274;28;20867;-63
2022/04/29 14:08:51;;;;;;;7.70;3.38;;;;;;;;;;5031065;28;20442;-63
2022/04/29 14:11:17;;;;;;;6.13;3.53;;;;;;;;;;5020141;28;20502;-63
2022/04/29 14:13:43;;;;;;;6.65;3.65;;;;;;;;;;5027055;28;20996;-63
2022/04/29 14:16:09;;;;;;;10.20;3.80;;;12.30;99.90;;;;;;5026403;28;20583;-62
2022/04/29 14:18:35;;;;;;;4.63;3.13;;;;;;;;;;5033341;28;20476;-62
2022/04/29 14:21:01;;;;;;;6.88;3.30;;;;;;;;;;5035291;28;20819;-62
2022/04/29 14:23:27;;;;;;;8.43;3.70;;;;;;;;;;5023901;28;20488;-62
2022/04/29 14:25:54;;;;;;;7.00;3.80;;;;;;;;;;5027711;28;20419;-62
2022/04/29 14:28:20;;;;;;;6.97;3.60;;;;;;;;;;5023303;28;20423;-63
2022/04/29 14:30:46;;;;;;;9.35;4.15;;;;;;;;;;5028075;28;20425;-62
2022/04/29 14:33:12;;;;;;;5.93;3.77;;;11.70;99.90;;;;;;5029033;28;20487;-63
2022/04/29 14:35:38;;;;;;;7.10;3.43;;;;;;;;;;5023832;28;20440;-62
2022/04/29 14:38:05;;;;;;;7.50;4.20;;;;;;;;;;5018165;28;20432;-63
2022/04/29 14:40:32;;;;;;;8.45;4.40;;;;;;;;;;5014383;28;20597;-63
2022/04/29 14:42:58;;;;;;;8.17;4.77;;;;;;;;;;5030005;28;20415;-63
2022/04/29 14:45:24;;;;;;;8.23;4.72;;;;;;;;;;5023283;28;20500;-62
2022/04/29 14:47:50;;;;;;;7.63;4.25;;;;;;;;;;5025344;28;20948;-63
2022/04/29 14:50:17;;;;;;;10.57;4.90;;;;;;;;;;5022401;28;20465;-63